sensor_id;sensor_type;location;lat;lon;timestamp;P1;durP1;ratioP1;P2;durP2;ratioP2
36547;SDS011;22551;52.206;4.856;2023-08-30T00:01:42;9.40;;;4.22;;
36547;SDS011;22551;52.206;4.856;2023-08-30T00:06:44;5.70;;;3.58;;
36547;SDS011;22551;52.206;4.856;2023-08-30T00:11:47;5.88;;;4.07;;
36547;SDS011;22551;52.206;4.856;2023-08-30T00:16:50;7.00;;;3.92;;
36547;SDS011;22551;52.206;4.856;2023-08-30T00:21:53;9.97;;;4.10;;
36547;SDS011;22551;52.206;4.856;2023-08-30T00:26:55;5.97;;;3.40;;
36547;SDS011;22551;52.206;4.856;2023-08-30T00:31:58;5.78;;;4.20;;
36547;SDS011;22551;52.206;4.856;2023-08-30T00:37:01;7.10;;;4.20;;
36547;SDS011;22551;52.206;4.856;2023-08-30T00:42:04;6.88;;;3.85;;
36547;SDS011;22551;52.206;4.856;2023-08-30T00:47:09;8.85;;;4.07;;
36547;SDS011;22551;52.206;4.856;2023-08-30T00:52:11;7.55;;;3.92;;
36547;SDS011;22551;52.206;4.856;2023-08-30T00:57:14;8.60;;;4.60;;
36547;SDS011;22551;52.206;4.856;2023-08-30T01:02:18;7.55;;;4.53;;
36547;SDS011;22551;52.206;4.856;2023-08-30T01:07:21;9.40;;;4.13;;
36547;SDS011;22551;52.206;4.856;2023-08-30T01:12:28;7.30;;;4.72;;
36547;SDS011;22551;52.206;4.856;2023-08-30T01:17:39;7.32;;;4.45;;
36547;SDS011;22551;52.206;4.856;2023-08-30T01:22:45;8.13;;;4.60;;
36547;SDS011;22551;52.206;4.856;2023-08-30T01:27:58;7.68;;;4.57;;
36547;SDS011;22551;52.206;4.856;2023-08-30T01:33:03;7.95;;;5.13;;
36547;SDS011;22551;52.206;4.856;2023-08-30T01:38:06;9.55;;;5.53;;
36547;SDS011;22551;52.206;4.856;2023-08-30T01:43:10;7.05;;;4.80;;
36547;SDS011;22551;52.206;4.856;2023-08-30T01:48:15;7.90;;;4.93;;
36547;SDS011;22551;52.206;4.856;2023-08-30T01:53:19;11.45;;;5.97;;
36547;SDS011;22551;52.206;4.856;2023-08-30T01:58:23;9.07;;;5.50;;
36547;SDS011;22551;52.206;4.856;2023-08-30T02:03:26;8.00;;;5.22;;
36547;SDS011;22551;52.206;4.856;2023-08-30T02:08:30;12.60;;;5.90;;
36547;SDS011;22551;52.206;4.856;2023-08-30T02:13:41;9.85;;;5.95;;
36547;SDS011;22551;52.206;4.856;2023-08-30T02:18:46;9.40;;;5.95;;
36547;SDS011;22551;52.206;4.856;2023-08-30T02:23:49;13.32;;;6.07;;
36547;SDS011;22551;52.206;4.856;2023-08-30T02:28:53;12.30;;;6.35;;
36547;SDS011;22551;52.206;4.856;2023-08-30T02:33:55;12.20;;;5.80;;
36547;SDS011;22551;52.206;4.856;2023-08-30T02:38:58;10.52;;;5.88;;
36547;SDS011;22551;52.206;4.856;2023-08-30T02:44:01;11.18;;;6.10;;
36547;SDS011;22551;52.206;4.856;2023-08-30T02:49:04;14.20;;;6.43;;
36547;SDS011;22551;52.206;4.856;2023-08-30T02:54:09;12.82;;;6.38;;
36547;SDS011;22551;52.206;4.856;2023-08-30T02:59:14;12.70;;;7.22;;
36547;SDS011;22551;52.206;4.856;2023-08-30T03:04:18;11.40;;;6.50;;
36547;SDS011;22551;52.206;4.856;2023-08-30T03:09:21;10.25;;;6.65;;
36547;SDS011;22551;52.206;4.856;2023-08-30T03:14:26;14.18;;;6.38;;
36547;SDS011;22551;52.206;4.856;2023-08-30T03:19:28;13.88;;;6.97;;
36547;SDS011;22551;52.206;4.856;2023-08-30T03:24:31;11.93;;;6.60;;
36547;SDS011;22551;52.206;4.856;2023-08-30T03:29:35;11.00;;;6.22;;
36547;SDS011;22551;52.206;4.856;2023-08-30T03:34:37;11.67;;;6.40;;
36547;SDS011;22551;52.206;4.856;2023-08-30T03:39:40;12.18;;;6.35;;
36547;SDS011;22551;52.206;4.856;2023-08-30T03:44:43;13.35;;;6.53;;
36547;SDS011;22551;52.206;4.856;2023-08-30T03:49:46;11.50;;;6.60;;
36547;SDS011;22551;52.206;4.856;2023-08-30T03:54:48;12.00;;;6.25;;
36547;SDS011;22551;52.206;4.856;2023-08-30T03:59:52;13.15;;;6.88;;
36547;SDS011;22551;52.206;4.856;2023-08-30T04:04:54;10.50;;;5.77;;
36547;SDS011;22551;52.206;4.856;2023-08-30T04:09:56;12.27;;;6.60;;
36547;SDS011;22551;52.206;4.856;2023-08-30T04:15:00;9.82;;;6.00;;
36547;SDS011;22551;52.206;4.856;2023-08-30T04:20:04;15.10;;;6.50;;
36547;SDS011;22551;52.206;4.856;2023-08-30T04:25:08;16.75;;;6.82;;
36547;SDS011;22551;52.206;4.856;2023-08-30T04:30:13;15.35;;;6.97;;
36547;SDS011;22551;52.206;4.856;2023-08-30T04:35:17;13.30;;;7.35;;
36547;SDS011;22551;52.206;4.856;2023-08-30T04:40:19;12.63;;;6.15;;
36547;SDS011;22551;52.206;4.856;2023-08-30T04:45:23;10.82;;;6.57;;
36547;SDS011;22551;52.206;4.856;2023-08-30T04:50:25;13.90;;;6.57;;
36547;SDS011;22551;52.206;4.856;2023-08-30T04:55:28;14.70;;;7.70;;
36547;SDS011;22551;52.206;4.856;2023-08-30T05:00:32;13.38;;;7.18;;
36547;SDS011;22551;52.206;4.856;2023-08-30T05:05:34;13.47;;;7.73;;
36547;SDS011;22551;52.206;4.856;2023-08-30T05:10:37;13.52;;;7.05;;
36547;SDS011;22551;52.206;4.856;2023-08-30T05:15:41;11.90;;;6.78;;
36547;SDS011;22551;52.206;4.856;2023-08-30T05:20:44;16.38;;;6.40;;
36547;SDS011;22551;52.206;4.856;2023-08-30T05:25:46;11.38;;;6.40;;
36547;SDS011;22551;52.206;4.856;2023-08-30T05:30:50;11.18;;;6.97;;
36547;SDS011;22551;52.206;4.856;2023-08-30T05:35:52;11.27;;;6.37;;
36547;SDS011;22551;52.206;4.856;2023-08-30T05:40:54;12.18;;;6.18;;
36547;SDS011;22551;52.206;4.856;2023-08-30T05:45:58;11.88;;;6.72;;
36547;SDS011;22551;52.206;4.856;2023-08-30T05:51:02;13.82;;;6.78;;
36547;SDS011;22551;52.206;4.856;2023-08-30T05:56:04;12.45;;;6.93;;
36547;SDS011;22551;52.206;4.856;2023-08-30T06:01:08;12.30;;;7.22;;
36547;SDS011;22551;52.206;4.856;2023-08-30T06:06:10;14.52;;;7.45;;
36547;SDS011;22551;52.206;4.856;2023-08-30T06:11:12;15.88;;;7.50;;
36547;SDS011;22551;52.206;4.856;2023-08-30T06:16:16;16.17;;;7.60;;
36547;SDS011;22551;52.206;4.856;2023-08-30T06:21:19;13.82;;;6.32;;
36547;SDS011;22551;52.206;4.856;2023-08-30T06:26:21;15.52;;;7.00;;
36547;SDS011;22551;52.206;4.856;2023-08-30T06:31:25;12.25;;;6.60;;
36547;SDS011;22551;52.206;4.856;2023-08-30T06:36:29;15.18;;;8.20;;
36547;SDS011;22551;52.206;4.856;2023-08-30T06:41:31;14.82;;;7.28;;
36547;SDS011;22551;52.206;4.856;2023-08-30T06:46:35;14.25;;;7.85;;
36547;SDS011;22551;52.206;4.856;2023-08-30T06:51:37;11.25;;;6.72;;
36547;SDS011;22551;52.206;4.856;2023-08-30T06:56:40;12.32;;;7.07;;
36547;SDS011;22551;52.206;4.856;2023-08-30T07:01:43;12.98;;;6.70;;
36547;SDS011;22551;52.206;4.856;2023-08-30T07:06:45;14.05;;;7.28;;
36547;SDS011;22551;52.206;4.856;2023-08-30T07:11:48;12.93;;;7.60;;
36547;SDS011;22551;52.206;4.856;2023-08-30T07:16:52;12.30;;;7.38;;
36547;SDS011;22551;52.206;4.856;2023-08-30T07:21:54;13.80;;;7.10;;
36547;SDS011;22551;52.206;4.856;2023-08-30T07:26:56;10.73;;;7.20;;
36547;SDS011;22551;52.206;4.856;2023-08-30T07:32:00;16.02;;;7.97;;
36547;SDS011;22551;52.206;4.856;2023-08-30T07:37:03;13.80;;;6.53;;
36547;SDS011;22551;52.206;4.856;2023-08-30T07:42:28;11.45;;;7.20;;
36547;SDS011;22551;52.206;4.856;2023-08-30T07:47:31;12.27;;;6.60;;
36547;SDS011;22551;52.206;4.856;2023-08-30T07:52:33;15.33;;;6.50;;
36547;SDS011;22551;52.206;4.856;2023-08-30T07:57:36;11.32;;;5.63;;
36547;SDS011;22551;52.206;4.856;2023-08-30T08:02:40;11.25;;;5.93;;
36547;SDS011;22551;52.206;4.856;2023-08-30T08:07:42;7.70;;;5.53;;
36547;SDS011;22551;52.206;4.856;2023-08-30T08:12:45;5.72;;;3.88;;
36547;SDS011;22551;52.206;4.856;2023-08-30T08:17:49;5.35;;;4.05;;
36547;SDS011;22551;52.206;4.856;2023-08-30T08:22:51;7.03;;;4.27;;
36547;SDS011;22551;52.206;4.856;2023-08-30T08:27:54;7.05;;;5.00;;
36547;SDS011;22551;52.206;4.856;2023-08-30T08:33:00;7.10;;;3.80;;
36547;SDS011;22551;52.206;4.856;2023-08-30T08:38:03;5.90;;;3.57;;
36547;SDS011;22551;52.206;4.856;2023-08-30T08:43:05;5.18;;;3.63;;
36547;SDS011;22551;52.206;4.856;2023-08-30T08:48:09;5.88;;;3.45;;
36547;SDS011;22551;52.206;4.856;2023-08-30T08:53:11;9.73;;;4.15;;
36547;SDS011;22551;52.206;4.856;2023-08-30T08:58:15;5.47;;;3.80;;
36547;SDS011;22551;52.206;4.856;2023-08-30T09:03:18;7.72;;;3.60;;
36547;SDS011;22551;52.206;4.856;2023-08-30T09:08:21;6.10;;;4.30;;
36547;SDS011;22551;52.206;4.856;2023-08-30T09:13:24;7.07;;;4.88;;
36547;SDS011;22551;52.206;4.856;2023-08-30T09:18:28;8.35;;;5.28;;
36547;SDS011;22551;52.206;4.856;2023-08-30T09:23:30;12.02;;;6.60;;
36547;SDS011;22551;52.206;4.856;2023-08-30T09:28:41;11.13;;;6.95;;
36547;SDS011;22551;52.206;4.856;2023-08-30T09:33:46;8.07;;;6.13;;
36547;SDS011;22551;52.206;4.856;2023-08-30T09:38:49;10.35;;;6.05;;
36547;SDS011;22551;52.206;4.856;2023-08-30T09:43:52;9.03;;;4.50;;
36547;SDS011;22551;52.206;4.856;2023-08-30T09:48:57;3.70;;;2.47;;
36547;SDS011;22551;52.206;4.856;2023-08-30T09:53:59;3.87;;;1.90;;
36547;SDS011;22551;52.206;4.856;2023-08-30T09:59:06;5.78;;;1.85;;
36547;SDS011;22551;52.206;4.856;2023-08-30T10:04:12;8.10;;;1.50;;
36547;SDS011;22551;52.206;4.856;2023-08-30T10:09:16;3.00;;;1.63;;
36547;SDS011;22551;52.206;4.856;2023-08-30T10:14:19;6.20;;;1.67;;
36547;SDS011;22551;52.206;4.856;2023-08-30T10:19:23;3.70;;;1.73;;
36547;SDS011;22551;52.206;4.856;2023-08-30T10:24:27;8.07;;;1.58;;
36547;SDS011;22551;52.206;4.856;2023-08-30T10:29:31;2.30;;;1.33;;
36547;SDS011;22551;52.206;4.856;2023-08-30T10:34:47;4.63;;;1.58;;
36547;SDS011;22551;52.206;4.856;2023-08-30T10:39:51;4.32;;;1.63;;
36547;SDS011;22551;52.206;4.856;2023-08-30T10:44:56;4.68;;;1.60;;
36547;SDS011;22551;52.206;4.856;2023-08-30T10:50:04;8.98;;;1.92;;
36547;SDS011;22551;52.206;4.856;2023-08-30T10:55:08;3.05;;;1.60;;
36547;SDS011;22551;52.206;4.856;2023-08-30T11:00:18;9.57;;;1.65;;
36547;SDS011;22551;52.206;4.856;2023-08-30T11:05:24;3.63;;;1.20;;
36547;SDS011;22551;52.206;4.856;2023-08-30T11:10:27;3.33;;;1.10;;
36547;SDS011;22551;52.206;4.856;2023-08-30T11:15:30;7.40;;;1.60;;
36547;SDS011;22551;52.206;4.856;2023-08-30T11:20:33;6.82;;;1.45;;
36547;SDS011;22551;52.206;4.856;2023-08-30T11:25:36;7.03;;;1.77;;
36547;SDS011;22551;52.206;4.856;2023-08-30T11:30:39;5.43;;;1.50;;
36547;SDS011;22551;52.206;4.856;2023-08-30T11:35:43;6.30;;;1.20;;
36547;SDS011;22551;52.206;4.856;2023-08-30T11:45:55;4.63;;;1.00;;
36547;SDS011;22551;52.206;4.856;2023-08-30T11:50:59;4.10;;;1.38;;
36547;SDS011;22551;52.206;4.856;2023-08-30T11:56:02;3.15;;;1.15;;
36547;SDS011;22551;52.206;4.856;2023-08-30T12:01:06;6.63;;;1.13;;
36547;SDS011;22551;52.206;4.856;2023-08-30T12:06:11;7.22;;;2.05;;
36547;SDS011;22551;52.206;4.856;2023-08-30T12:11:17;6.07;;;1.25;;
36547;SDS011;22551;52.206;4.856;2023-08-30T12:16:20;8.00;;;1.10;;
36547;SDS011;22551;52.206;4.856;2023-08-30T12:21:26;6.35;;;1.10;;
36547;SDS011;22551;52.206;4.856;2023-08-30T12:26:31;2.92;;;0.90;;
36547;SDS011;22551;52.206;4.856;2023-08-30T12:31:34;5.15;;;1.58;;
36547;SDS011;22551;52.206;4.856;2023-08-30T12:36:37;6.00;;;1.05;;
36547;SDS011;22551;52.206;4.856;2023-08-30T12:41:40;7.20;;;1.30;;
36547;SDS011;22551;52.206;4.856;2023-08-30T12:46:43;6.65;;;0.90;;
36547;SDS011;22551;52.206;4.856;2023-08-30T12:51:46;4.15;;;1.42;;
36547;SDS011;22551;52.206;4.856;2023-08-30T12:56:48;2.22;;;0.90;;
36547;SDS011;22551;52.206;4.856;2023-08-30T13:01:51;5.78;;;0.77;;
36547;SDS011;22551;52.206;4.856;2023-08-30T13:06:55;3.05;;;0.82;;
36547;SDS011;22551;52.206;4.856;2023-08-30T13:11:57;4.78;;;1.20;;
36547;SDS011;22551;52.206;4.856;2023-08-30T13:16:59;2.63;;;1.17;;
36547;SDS011;22551;52.206;4.856;2023-08-30T13:22:04;8.52;;;1.42;;
36547;SDS011;22551;52.206;4.856;2023-08-30T13:27:07;3.72;;;1.50;;
36547;SDS011;22551;52.206;4.856;2023-08-30T13:32:09;8.27;;;1.33;;
36547;SDS011;22551;52.206;4.856;2023-08-30T13:37:13;2.85;;;0.77;;
36547;SDS011;22551;52.206;4.856;2023-08-30T13:42:16;3.53;;;0.77;;
36547;SDS011;22551;52.206;4.856;2023-08-30T13:47:18;3.40;;;1.00;;
36547;SDS011;22551;52.206;4.856;2023-08-30T13:52:22;2.45;;;0.50;;
36547;SDS011;22551;52.206;4.856;2023-08-30T13:57:24;3.33;;;0.50;;
36547;SDS011;22551;52.206;4.856;2023-08-30T14:02:27;2.25;;;0.40;;
36547;SDS011;22551;52.206;4.856;2023-08-30T14:07:30;3.58;;;1.10;;
36547;SDS011;22551;52.206;4.856;2023-08-30T14:12:33;4.43;;;0.98;;
36547;SDS011;22551;52.206;4.856;2023-08-30T14:17:35;6.32;;;1.17;;
36547;SDS011;22551;52.206;4.856;2023-08-30T14:22:39;3.75;;;0.60;;
36547;SDS011;22551;52.206;4.856;2023-08-30T14:27:41;6.17;;;0.67;;
36547;SDS011;22551;52.206;4.856;2023-08-30T14:32:44;5.45;;;0.90;;
36547;SDS011;22551;52.206;4.856;2023-08-30T14:37:47;2.45;;;0.65;;
36547;SDS011;22551;52.206;4.856;2023-08-30T14:42:49;1.60;;;0.57;;
36547;SDS011;22551;52.206;4.856;2023-08-30T14:47:52;6.40;;;0.80;;
36547;SDS011;22551;52.206;4.856;2023-08-30T14:52:56;3.35;;;0.70;;
36547;SDS011;22551;52.206;4.856;2023-08-30T14:57:58;4.85;;;0.85;;
36547;SDS011;22551;52.206;4.856;2023-08-30T15:03:01;4.55;;;1.10;;
36547;SDS011;22551;52.206;4.856;2023-08-30T15:08:05;8.95;;;1.55;;
36547;SDS011;22551;52.206;4.856;2023-08-30T15:13:08;5.72;;;1.63;;
36547;SDS011;22551;52.206;4.856;2023-08-30T15:18:10;7.70;;;2.97;;
36547;SDS011;22551;52.206;4.856;2023-08-30T15:23:15;10.70;;;2.00;;
36547;SDS011;22551;52.206;4.856;2023-08-30T15:33:19;9.48;;;1.50;;
36547;SDS011;22551;52.206;4.856;2023-08-30T15:38:25;4.47;;;1.17;;
36547;SDS011;22551;52.206;4.856;2023-08-30T15:43:27;1.43;;;0.80;;
36547;SDS011;22551;52.206;4.856;2023-08-30T15:48:30;5.93;;;0.80;;
36547;SDS011;22551;52.206;4.856;2023-08-30T15:53:34;4.32;;;0.60;;
36547;SDS011;22551;52.206;4.856;2023-08-30T15:58:37;5.07;;;1.15;;
36547;SDS011;22551;52.206;4.856;2023-08-30T16:03:39;7.05;;;1.42;;
36547;SDS011;22551;52.206;4.856;2023-08-30T16:08:43;1.02;;;0.57;;
36547;SDS011;22551;52.206;4.856;2023-08-30T16:13:45;3.87;;;1.10;;
36547;SDS011;22551;52.206;4.856;2023-08-30T16:18:47;4.35;;;0.60;;
36547;SDS011;22551;52.206;4.856;2023-08-30T16:23:51;1.27;;;0.50;;
36547;SDS011;22551;52.206;4.856;2023-08-30T16:28:53;2.63;;;0.50;;
36547;SDS011;22551;52.206;4.856;2023-08-30T16:33:56;1.73;;;0.43;;
36547;SDS011;22551;52.206;4.856;2023-08-30T16:39:02;3.50;;;0.43;;
36547;SDS011;22551;52.206;4.856;2023-08-30T16:44:06;3.67;;;0.80;;
36547;SDS011;22551;52.206;4.856;2023-08-30T16:49:09;1.27;;;0.60;;
36547;SDS011;22551;52.206;4.856;2023-08-30T16:54:14;5.40;;;0.60;;
36547;SDS011;22551;52.206;4.856;2023-08-30T16:59:16;6.57;;;0.50;;
36547;SDS011;22551;52.206;4.856;2023-08-30T17:04:18;0.85;;;0.40;;
36547;SDS011;22551;52.206;4.856;2023-08-30T17:09:22;4.40;;;1.27;;
36547;SDS011;22551;52.206;4.856;2023-08-30T17:14:26;4.55;;;0.73;;
36547;SDS011;22551;52.206;4.856;2023-08-30T17:19:29;5.35;;;0.70;;
36547;SDS011;22551;52.206;4.856;2023-08-30T17:24:33;3.00;;;0.60;;
36547;SDS011;22551;52.206;4.856;2023-08-30T17:29:36;2.72;;;0.63;;
36547;SDS011;22551;52.206;4.856;2023-08-30T17:34:39;3.45;;;0.52;;
36547;SDS011;22551;52.206;4.856;2023-08-30T17:39:43;2.13;;;0.68;;
36547;SDS011;22551;52.206;4.856;2023-08-30T17:44:45;2.30;;;0.57;;
36547;SDS011;22551;52.206;4.856;2023-08-30T17:49:48;6.30;;;0.90;;
36547;SDS011;22551;52.206;4.856;2023-08-30T17:54:51;2.42;;;0.40;;
36547;SDS011;22551;52.206;4.856;2023-08-30T17:59:54;2.67;;;0.57;;
36547;SDS011;22551;52.206;4.856;2023-08-30T18:04:56;4.28;;;1.00;;
36547;SDS011;22551;52.206;4.856;2023-08-30T18:10:00;4.57;;;0.73;;
36547;SDS011;22551;52.206;4.856;2023-08-30T18:15:03;3.97;;;0.90;;
36547;SDS011;22551;52.206;4.856;2023-08-30T18:20:06;4.65;;;0.57;;
36547;SDS011;22551;52.206;4.856;2023-08-30T18:25:14;3.35;;;0.45;;
36547;SDS011;22551;52.206;4.856;2023-08-30T18:30:18;4.65;;;0.70;;
36547;SDS011;22551;52.206;4.856;2023-08-30T18:35:21;3.15;;;0.32;;
36547;SDS011;22551;52.206;4.856;2023-08-30T18:40:24;2.13;;;0.90;;
36547;SDS011;22551;52.206;4.856;2023-08-30T18:45:27;0.83;;;0.47;;
36547;SDS011;22551;52.206;4.856;2023-08-30T18:50:30;7.25;;;0.75;;
36547;SDS011;22551;52.206;4.856;2023-08-30T18:55:34;5.07;;;1.17;;
36547;SDS011;22551;52.206;4.856;2023-08-30T19:00:36;2.70;;;0.60;;
36547;SDS011;22551;52.206;4.856;2023-08-30T19:10:44;5.50;;;0.90;;
36547;SDS011;22551;52.206;4.856;2023-08-30T19:15:47;5.93;;;0.80;;
36547;SDS011;22551;52.206;4.856;2023-08-30T19:20:53;1.92;;;0.80;;
36547;SDS011;22551;52.206;4.856;2023-08-30T19:25:58;3.80;;;1.05;;
36547;SDS011;22551;52.206;4.856;2023-08-30T19:31:01;3.75;;;0.88;;
36547;SDS011;22551;52.206;4.856;2023-08-30T19:36:04;2.80;;;1.38;;
36547;SDS011;22551;52.206;4.856;2023-08-30T19:41:08;4.57;;;1.40;;
36547;SDS011;22551;52.206;4.856;2023-08-30T19:46:10;1.83;;;0.75;;
36547;SDS011;22551;52.206;4.856;2023-08-30T19:51:12;3.50;;;0.90;;
36547;SDS011;22551;52.206;4.856;2023-08-30T19:56:15;2.30;;;1.17;;
36547;SDS011;22551;52.206;4.856;2023-08-30T20:01:18;1.23;;;0.85;;
36547;SDS011;22551;52.206;4.856;2023-08-30T20:06:21;1.60;;;0.68;;
36547;SDS011;22551;52.206;4.856;2023-08-30T20:11:24;2.17;;;0.70;;
36547;SDS011;22551;52.206;4.856;2023-08-30T20:16:27;1.90;;;0.70;;
36547;SDS011;22551;52.206;4.856;2023-08-30T20:21:29;1.77;;;0.60;;
36547;SDS011;22551;52.206;4.856;2023-08-30T20:26:34;1.80;;;0.77;;
36547;SDS011;22551;52.206;4.856;2023-08-30T20:31:37;4.38;;;0.80;;
36547;SDS011;22551;52.206;4.856;2023-08-30T20:36:39;2.72;;;1.00;;
36547;SDS011;22551;52.206;4.856;2023-08-30T20:41:43;5.13;;;0.73;;
36547;SDS011;22551;52.206;4.856;2023-08-30T20:46:45;6.47;;;1.75;;
36547;SDS011;22551;52.206;4.856;2023-08-30T20:51:47;1.40;;;0.60;;
36547;SDS011;22551;52.206;4.856;2023-08-30T20:56:51;2.97;;;0.50;;
36547;SDS011;22551;52.206;4.856;2023-08-30T21:01:54;1.38;;;0.63;;
36547;SDS011;22551;52.206;4.856;2023-08-30T21:06:56;2.95;;;1.08;;
36547;SDS011;22551;52.206;4.856;2023-08-30T21:12:00;2.20;;;0.90;;
36547;SDS011;22551;52.206;4.856;2023-08-30T21:17:03;1.85;;;0.73;;
36547;SDS011;22551;52.206;4.856;2023-08-30T21:22:05;2.15;;;0.55;;
36547;SDS011;22551;52.206;4.856;2023-08-30T21:27:10;3.10;;;0.73;;
36547;SDS011;22551;52.206;4.856;2023-08-30T21:32:12;1.98;;;1.02;;
36547;SDS011;22551;52.206;4.856;2023-08-30T21:37:14;3.00;;;1.15;;
36547;SDS011;22551;52.206;4.856;2023-08-30T21:42:18;2.45;;;1.02;;
36547;SDS011;22551;52.206;4.856;2023-08-30T21:47:21;2.30;;;0.80;;
36547;SDS011;22551;52.206;4.856;2023-08-30T21:52:23;3.03;;;1.10;;
36547;SDS011;22551;52.206;4.856;2023-08-30T21:57:30;1.42;;;0.85;;
36547;SDS011;22551;52.206;4.856;2023-08-30T22:02:32;3.03;;;1.02;;
36547;SDS011;22551;52.206;4.856;2023-08-30T22:07:34;3.88;;;1.00;;
36547;SDS011;22551;52.206;4.856;2023-08-30T22:12:38;1.77;;;1.33;;
36547;SDS011;22551;52.206;4.856;2023-08-30T22:17:40;3.17;;;1.10;;
36547;SDS011;22551;52.206;4.856;2023-08-30T22:22:44;2.45;;;1.50;;
36547;SDS011;22551;52.206;4.856;2023-08-30T22:27:49;1.70;;;1.33;;
36547;SDS011;22551;52.206;4.856;2023-08-30T22:32:51;1.92;;;1.52;;
36547;SDS011;22551;52.206;4.856;2023-08-30T22:37:53;2.00;;;1.48;;
36547;SDS011;22551;52.206;4.856;2023-08-30T22:42:57;3.65;;;1.38;;
36547;SDS011;22551;52.206;4.856;2023-08-30T22:47:59;3.15;;;1.10;;
36547;SDS011;22551;52.206;4.856;2023-08-30T22:53:01;3.53;;;1.52;;
36547;SDS011;22551;52.206;4.856;2023-08-30T22:58:05;4.63;;;1.55;;
36547;SDS011;22551;52.206;4.856;2023-08-30T23:03:08;2.30;;;1.20;;
36547;SDS011;22551;52.206;4.856;2023-08-30T23:08:10;3.05;;;1.25;;
36547;SDS011;22551;52.206;4.856;2023-08-30T23:13:14;5.60;;;1.33;;
36547;SDS011;22551;52.206;4.856;2023-08-30T23:18:16;5.68;;;1.55;;
36547;SDS011;22551;52.206;4.856;2023-08-30T23:23:18;3.85;;;1.42;;
36547;SDS011;22551;52.206;4.856;2023-08-30T23:28:24;6.77;;;1.10;;
36547;SDS011;22551;52.206;4.856;2023-08-30T23:33:26;4.30;;;1.27;;
36547;SDS011;22551;52.206;4.856;2023-08-30T23:38:28;2.67;;;1.35;;
36547;SDS011;22551;52.206;4.856;2023-08-30T23:43:32;1.95;;;1.25;;
36547;SDS011;22551;52.206;4.856;2023-08-30T23:48:34;2.85;;;1.42;;
36547;SDS011;22551;52.206;4.856;2023-08-30T23:53:37;2.95;;;1.65;;
36547;SDS011;22551;52.206;4.856;2023-08-30T23:58:40;4.18;;;1.15;;
